sensor_id;sensor_type;location;lat;lon;timestamp;P1;durP1;ratioP1;P2;durP2;ratioP2
53263;SDS011;39153;52.680;6.172;2023-03-11T00:00:32;9.07;;;1.38;;
53263;SDS011;39153;52.680;6.172;2023-03-11T00:02:59;6.07;;;0.88;;
53263;SDS011;39153;52.680;6.172;2023-03-11T00:05:27;4.60;;;1.35;;
53263;SDS011;39153;52.680;6.172;2023-03-11T00:07:55;5.38;;;1.10;;
53263;SDS011;39153;52.680;6.172;2023-03-11T00:10:23;6.15;;;1.02;;
53263;SDS011;39153;52.680;6.172;2023-03-11T00:12:51;6.63;;;1.20;;
53263;SDS011;39153;52.680;6.172;2023-03-11T00:15:17;6.30;;;1.50;;
53263;SDS011;39153;52.680;6.172;2023-03-11T00:17:43;7.80;;;1.42;;
53263;SDS011;39153;52.680;6.172;2023-03-11T00:20:15;10.30;;;1.38;;
53263;SDS011;39153;52.680;6.172;2023-03-11T00:23:01;8.75;;;1.30;;
53263;SDS011;39153;52.680;6.172;2023-03-11T00:25:30;13.82;;;1.23;;
53263;SDS011;39153;52.680;6.172;2023-03-11T00:27:57;6.72;;;1.10;;
53263;SDS011;39153;52.680;6.172;2023-03-11T00:30:23;9.75;;;1.38;;
53263;SDS011;39153;52.680;6.172;2023-03-11T00:32:50;6.43;;;1.30;;
53263;SDS011;39153;52.680;6.172;2023-03-11T00:35:19;6.82;;;1.02;;
53263;SDS011;39153;52.680;6.172;2023-03-11T00:37:47;7.57;;;1.25;;
53263;SDS011;39153;52.680;6.172;2023-03-11T00:40:14;8.77;;;1.40;;
53263;SDS011;39153;52.680;6.172;2023-03-11T00:42:42;6.30;;;1.20;;
53263;SDS011;39153;52.680;6.172;2023-03-11T00:45:08;11.32;;;1.33;;
53263;SDS011;39153;52.680;6.172;2023-03-11T00:47:34;4.93;;;1.02;;
53263;SDS011;39153;52.680;6.172;2023-03-11T00:50:00;7.55;;;1.13;;
53263;SDS011;39153;52.680;6.172;2023-03-11T00:52:26;8.43;;;1.30;;
53263;SDS011;39153;52.680;6.172;2023-03-11T00:54:53;7.72;;;1.50;;
53263;SDS011;39153;52.680;6.172;2023-03-11T00:57:19;8.07;;;1.10;;
53263;SDS011;39153;52.680;6.172;2023-03-11T00:59:44;5.28;;;1.20;;
53263;SDS011;39153;52.680;6.172;2023-03-11T01:02:10;8.82;;;1.25;;
53263;SDS011;39153;52.680;6.172;2023-03-11T01:04:36;8.30;;;0.90;;
53263;SDS011;39153;52.680;6.172;2023-03-11T01:07:02;7.20;;;0.90;;
53263;SDS011;39153;52.680;6.172;2023-03-11T01:09:27;5.45;;;1.13;;
53263;SDS011;39153;52.680;6.172;2023-03-11T01:11:53;4.20;;;1.23;;
53263;SDS011;39153;52.680;6.172;2023-03-11T01:14:19;5.15;;;1.00;;
53263;SDS011;39153;52.680;6.172;2023-03-11T01:16:45;6.22;;;1.50;;
53263;SDS011;39153;52.680;6.172;2023-03-11T01:19:11;6.65;;;1.10;;
53263;SDS011;39153;52.680;6.172;2023-03-11T01:21:37;4.53;;;1.10;;
53263;SDS011;39153;52.680;6.172;2023-03-11T01:24:03;3.58;;;0.90;;
53263;SDS011;39153;52.680;6.172;2023-03-11T01:26:28;6.43;;;0.90;;
53263;SDS011;39153;52.680;6.172;2023-03-11T01:28:54;4.90;;;1.13;;
53263;SDS011;39153;52.680;6.172;2023-03-11T01:31:20;5.43;;;1.10;;
53263;SDS011;39153;52.680;6.172;2023-03-11T01:33:45;10.82;;;1.20;;
53263;SDS011;39153;52.680;6.172;2023-03-11T01:36:11;8.18;;;1.30;;
53263;SDS011;39153;52.680;6.172;2023-03-11T01:38:37;4.38;;;0.93;;
53263;SDS011;39153;52.680;6.172;2023-03-11T01:41:03;9.48;;;1.25;;
53263;SDS011;39153;52.680;6.172;2023-03-11T01:48:51;3.55;;;0.93;;
53263;SDS011;39153;52.680;6.172;2023-03-11T01:56:23;2.30;;;0.80;;
53263;SDS011;39153;52.680;6.172;2023-03-11T01:58:50;4.80;;;0.82;;
53263;SDS011;39153;52.680;6.172;2023-03-11T02:01:18;3.95;;;1.00;;
53263;SDS011;39153;52.680;6.172;2023-03-11T02:03:45;4.75;;;0.90;;
53263;SDS011;39153;52.680;6.172;2023-03-11T02:06:13;5.88;;;0.95;;
53263;SDS011;39153;52.680;6.172;2023-03-11T02:08:41;3.58;;;1.13;;
53263;SDS011;39153;52.680;6.172;2023-03-11T02:11:08;4.22;;;1.00;;
53263;SDS011;39153;52.680;6.172;2023-03-11T02:13:40;6.60;;;0.88;;
53263;SDS011;39153;52.680;6.172;2023-03-11T02:16:09;4.38;;;0.85;;
53263;SDS011;39153;52.680;6.172;2023-03-11T02:18:35;10.43;;;1.15;;
53263;SDS011;39153;52.680;6.172;2023-03-11T02:23:35;4.22;;;1.10;;
53263;SDS011;39153;52.680;6.172;2023-03-11T02:26:16;5.28;;;0.82;;
53263;SDS011;39153;52.680;6.172;2023-03-11T02:28:47;4.15;;;0.95;;
53263;SDS011;39153;52.680;6.172;2023-03-11T02:31:14;6.95;;;0.93;;
53263;SDS011;39153;52.680;6.172;2023-03-11T02:33:40;6.25;;;0.70;;
53263;SDS011;39153;52.680;6.172;2023-03-11T02:36:28;4.80;;;0.90;;
53263;SDS011;39153;52.680;6.172;2023-03-11T02:38:54;2.63;;;0.60;;
53263;SDS011;39153;52.680;6.172;2023-03-11T02:41:20;4.75;;;0.77;;
53263;SDS011;39153;52.680;6.172;2023-03-11T02:43:45;3.35;;;0.85;;
53263;SDS011;39153;52.680;6.172;2023-03-11T02:46:12;5.65;;;0.80;;
53263;SDS011;39153;52.680;6.172;2023-03-11T02:48:38;4.03;;;1.08;;
53263;SDS011;39153;52.680;6.172;2023-03-11T02:51:05;2.88;;;0.73;;
53263;SDS011;39153;52.680;6.172;2023-03-11T02:53:33;7.13;;;0.88;;
53263;SDS011;39153;52.680;6.172;2023-03-11T02:56:03;3.35;;;0.80;;
53263;SDS011;39153;52.680;6.172;2023-03-11T02:58:29;4.38;;;0.77;;
53263;SDS011;39153;52.680;6.172;2023-03-11T03:00:54;6.35;;;0.77;;
53263;SDS011;39153;52.680;6.172;2023-03-11T03:03:20;6.28;;;0.80;;
53263;SDS011;39153;52.680;6.172;2023-03-11T03:05:46;5.35;;;0.90;;
53263;SDS011;39153;52.680;6.172;2023-03-11T03:08:12;2.60;;;0.80;;
53263;SDS011;39153;52.680;6.172;2023-03-11T03:10:37;4.63;;;0.80;;
53263;SDS011;39153;52.680;6.172;2023-03-11T03:13:03;4.53;;;0.82;;
53263;SDS011;39153;52.680;6.172;2023-03-11T03:15:29;4.03;;;0.70;;
53263;SDS011;39153;52.680;6.172;2023-03-11T03:17:54;3.70;;;0.85;;
53263;SDS011;39153;52.680;6.172;2023-03-11T03:20:20;6.20;;;0.70;;
53263;SDS011;39153;52.680;6.172;2023-03-11T03:22:46;5.32;;;0.88;;
53263;SDS011;39153;52.680;6.172;2023-03-11T03:25:13;5.97;;;0.88;;
53263;SDS011;39153;52.680;6.172;2023-03-11T03:27:39;9.57;;;1.00;;
53263;SDS011;39153;52.680;6.172;2023-03-11T03:30:05;2.30;;;0.77;;
53263;SDS011;39153;52.680;6.172;2023-03-11T03:32:31;4.07;;;0.85;;
53263;SDS011;39153;52.680;6.172;2023-03-11T03:34:57;4.68;;;1.00;;
53263;SDS011;39153;52.680;6.172;2023-03-11T03:37:24;1.58;;;0.63;;
53263;SDS011;39153;52.680;6.172;2023-03-11T03:39:51;5.40;;;0.88;;
53263;SDS011;39153;52.680;6.172;2023-03-11T03:42:17;1.92;;;0.52;;
53263;SDS011;39153;52.680;6.172;2023-03-11T03:44:43;6.18;;;0.90;;
53263;SDS011;39153;52.680;6.172;2023-03-11T03:47:09;2.95;;;0.77;;
53263;SDS011;39153;52.680;6.172;2023-03-11T03:49:36;7.05;;;0.80;;
53263;SDS011;39153;52.680;6.172;2023-03-11T03:52:03;2.45;;;0.70;;
53263;SDS011;39153;52.680;6.172;2023-03-11T03:54:30;6.00;;;1.05;;
53263;SDS011;39153;52.680;6.172;2023-03-11T03:56:56;9.10;;;0.90;;
53263;SDS011;39153;52.680;6.172;2023-03-11T03:59:22;1.95;;;0.60;;
53263;SDS011;39153;52.680;6.172;2023-03-11T04:01:48;2.20;;;0.60;;
53263;SDS011;39153;52.680;6.172;2023-03-11T04:04:14;4.88;;;0.80;;
53263;SDS011;39153;52.680;6.172;2023-03-11T04:06:40;2.25;;;0.70;;
53263;SDS011;39153;52.680;6.172;2023-03-11T04:09:08;4.68;;;0.77;;
53263;SDS011;39153;52.680;6.172;2023-03-11T04:11:35;3.40;;;0.70;;
53263;SDS011;39153;52.680;6.172;2023-03-11T04:14:02;3.33;;;0.80;;
53263;SDS011;39153;52.680;6.172;2023-03-11T04:16:28;2.92;;;0.80;;
53263;SDS011;39153;52.680;6.172;2023-03-11T04:18:54;4.30;;;1.05;;
53263;SDS011;39153;52.680;6.172;2023-03-11T04:21:19;2.65;;;0.50;;
53263;SDS011;39153;52.680;6.172;2023-03-11T04:23:45;6.93;;;1.00;;
53263;SDS011;39153;52.680;6.172;2023-03-11T04:26:11;4.75;;;0.75;;
53263;SDS011;39153;52.680;6.172;2023-03-11T04:28:37;1.13;;;0.50;;
53263;SDS011;39153;52.680;6.172;2023-03-11T04:31:03;4.13;;;0.80;;
53263;SDS011;39153;52.680;6.172;2023-03-11T04:33:29;3.78;;;0.63;;
53263;SDS011;39153;52.680;6.172;2023-03-11T04:35:55;1.95;;;0.70;;
53263;SDS011;39153;52.680;6.172;2023-03-11T04:38:20;3.40;;;0.60;;
53263;SDS011;39153;52.680;6.172;2023-03-11T04:40:46;2.20;;;0.70;;
53263;SDS011;39153;52.680;6.172;2023-03-11T04:43:12;4.53;;;0.65;;
53263;SDS011;39153;52.680;6.172;2023-03-11T04:45:38;1.42;;;0.57;;
53263;SDS011;39153;52.680;6.172;2023-03-11T04:48:04;1.50;;;0.73;;
53263;SDS011;39153;52.680;6.172;2023-03-11T04:50:30;7.20;;;1.20;;
53263;SDS011;39153;52.680;6.172;2023-03-11T04:52:56;3.42;;;0.82;;
53263;SDS011;39153;52.680;6.172;2023-03-11T04:55:23;1.75;;;0.70;;
53263;SDS011;39153;52.680;6.172;2023-03-11T04:57:49;1.50;;;0.57;;
53263;SDS011;39153;52.680;6.172;2023-03-11T05:00:14;4.65;;;0.88;;
53263;SDS011;39153;52.680;6.172;2023-03-11T05:02:41;1.88;;;0.57;;
53263;SDS011;39153;52.680;6.172;2023-03-11T05:05:08;4.43;;;0.70;;
53263;SDS011;39153;52.680;6.172;2023-03-11T05:07:34;3.90;;;0.85;;
53263;SDS011;39153;52.680;6.172;2023-03-11T05:10:01;3.25;;;0.70;;
53263;SDS011;39153;52.680;6.172;2023-03-11T05:12:28;2.15;;;0.70;;
53263;SDS011;39153;52.680;6.172;2023-03-11T05:14:53;4.45;;;0.82;;
53263;SDS011;39153;52.680;6.172;2023-03-11T05:17:19;4.43;;;0.68;;
53263;SDS011;39153;52.680;6.172;2023-03-11T05:19:45;3.75;;;0.90;;
53263;SDS011;39153;52.680;6.172;2023-03-11T05:22:11;1.77;;;0.80;;
53263;SDS011;39153;52.680;6.172;2023-03-11T05:24:36;2.97;;;0.70;;
53263;SDS011;39153;52.680;6.172;2023-03-11T05:27:02;5.35;;;0.70;;
53263;SDS011;39153;52.680;6.172;2023-03-11T05:29:29;3.08;;;0.88;;
53263;SDS011;39153;52.680;6.172;2023-03-11T05:31:55;2.72;;;0.50;;
53263;SDS011;39153;52.680;6.172;2023-03-11T05:34:21;2.05;;;0.60;;
53263;SDS011;39153;52.680;6.172;2023-03-11T05:36:47;2.90;;;0.63;;
53263;SDS011;39153;52.680;6.172;2023-03-11T05:39:13;3.50;;;0.77;;
53263;SDS011;39153;52.680;6.172;2023-03-11T05:41:39;7.25;;;0.80;;
53263;SDS011;39153;52.680;6.172;2023-03-11T05:44:05;3.35;;;0.73;;
53263;SDS011;39153;52.680;6.172;2023-03-11T05:46:31;1.63;;;0.52;;
53263;SDS011;39153;52.680;6.172;2023-03-11T05:49:00;3.22;;;0.80;;
53263;SDS011;39153;52.680;6.172;2023-03-11T05:51:26;1.83;;;0.60;;
53263;SDS011;39153;52.680;6.172;2023-03-11T05:53:52;2.63;;;0.77;;
53263;SDS011;39153;52.680;6.172;2023-03-11T05:56:18;1.98;;;0.55;;
53263;SDS011;39153;52.680;6.172;2023-03-11T05:58:45;3.40;;;0.70;;
53263;SDS011;39153;52.680;6.172;2023-03-11T06:01:12;3.33;;;0.80;;
53263;SDS011;39153;52.680;6.172;2023-03-11T06:03:39;5.43;;;0.73;;
53263;SDS011;39153;52.680;6.172;2023-03-11T06:06:06;5.43;;;0.73;;
53263;SDS011;39153;52.680;6.172;2023-03-11T06:08:34;2.75;;;0.65;;
53263;SDS011;39153;52.680;6.172;2023-03-11T06:11:05;1.65;;;0.60;;
53263;SDS011;39153;52.680;6.172;2023-03-11T06:13:31;1.63;;;0.70;;
53263;SDS011;39153;52.680;6.172;2023-03-11T06:15:57;6.00;;;0.70;;
53263;SDS011;39153;52.680;6.172;2023-03-11T06:18:23;5.82;;;0.68;;
53263;SDS011;39153;52.680;6.172;2023-03-11T06:20:51;3.20;;;0.80;;
53263;SDS011;39153;52.680;6.172;2023-03-11T06:23:17;3.10;;;0.90;;
53263;SDS011;39153;52.680;6.172;2023-03-11T06:25:43;5.93;;;0.73;;
53263;SDS011;39153;52.680;6.172;2023-03-11T06:28:09;5.82;;;0.80;;
53263;SDS011;39153;52.680;6.172;2023-03-11T06:30:35;7.57;;;1.33;;
53263;SDS011;39153;52.680;6.172;2023-03-11T06:33:00;3.55;;;1.00;;
53263;SDS011;39153;52.680;6.172;2023-03-11T06:35:26;2.67;;;0.85;;
53263;SDS011;39153;52.680;6.172;2023-03-11T06:37:52;6.43;;;0.90;;
53263;SDS011;39153;52.680;6.172;2023-03-11T06:40:18;4.10;;;0.90;;
53263;SDS011;39153;52.680;6.172;2023-03-11T06:42:47;3.75;;;0.80;;
53263;SDS011;39153;52.680;6.172;2023-03-11T06:45:12;5.32;;;0.80;;
53263;SDS011;39153;52.680;6.172;2023-03-11T06:47:38;1.48;;;0.60;;
53263;SDS011;39153;52.680;6.172;2023-03-11T06:50:05;1.52;;;0.65;;
53263;SDS011;39153;52.680;6.172;2023-03-11T06:52:33;4.43;;;0.90;;
53263;SDS011;39153;52.680;6.172;2023-03-11T06:54:59;3.03;;;0.70;;
53263;SDS011;39153;52.680;6.172;2023-03-11T06:57:25;4.90;;;0.60;;
53263;SDS011;39153;52.680;6.172;2023-03-11T06:59:51;2.47;;;0.60;;
53263;SDS011;39153;52.680;6.172;2023-03-11T07:02:17;3.67;;;0.70;;
53263;SDS011;39153;52.680;6.172;2023-03-11T07:04:43;4.28;;;0.80;;
53263;SDS011;39153;52.680;6.172;2023-03-11T07:07:09;4.07;;;0.80;;
53263;SDS011;39153;52.680;6.172;2023-03-11T07:09:34;8.80;;;1.00;;
53263;SDS011;39153;52.680;6.172;2023-03-11T07:12:00;5.78;;;0.88;;
53263;SDS011;39153;52.680;6.172;2023-03-11T07:14:26;4.00;;;0.77;;
53263;SDS011;39153;52.680;6.172;2023-03-11T07:16:51;3.90;;;1.00;;
53263;SDS011;39153;52.680;6.172;2023-03-11T07:19:17;6.57;;;1.08;;
53263;SDS011;39153;52.680;6.172;2023-03-11T07:21:43;6.95;;;1.30;;
53263;SDS011;39153;52.680;6.172;2023-03-11T07:24:10;2.30;;;0.95;;
53263;SDS011;39153;52.680;6.172;2023-03-11T07:26:37;4.38;;;1.05;;
53263;SDS011;39153;52.680;6.172;2023-03-11T07:29:02;6.13;;;0.98;;
53263;SDS011;39153;52.680;6.172;2023-03-11T07:31:29;4.53;;;0.80;;
53263;SDS011;39153;52.680;6.172;2023-03-11T07:33:57;8.93;;;0.90;;
53263;SDS011;39153;52.680;6.172;2023-03-11T07:36:24;2.95;;;0.95;;
53263;SDS011;39153;52.680;6.172;2023-03-11T07:38:58;3.63;;;1.10;;
53263;SDS011;39153;52.680;6.172;2023-03-11T07:41:27;3.55;;;0.70;;
53263;SDS011;39153;52.680;6.172;2023-03-11T07:43:55;4.00;;;0.80;;
53263;SDS011;39153;52.680;6.172;2023-03-11T07:46:22;3.50;;;0.90;;
53263;SDS011;39153;52.680;6.172;2023-03-11T07:48:50;5.18;;;0.90;;
53263;SDS011;39153;52.680;6.172;2023-03-11T07:51:20;2.78;;;0.88;;
53263;SDS011;39153;52.680;6.172;2023-03-11T07:53:47;5.70;;;1.15;;
53263;SDS011;39153;52.680;6.172;2023-03-11T07:56:14;3.15;;;0.90;;
53263;SDS011;39153;52.680;6.172;2023-03-11T07:58:41;8.57;;;1.20;;
53263;SDS011;39153;52.680;6.172;2023-03-11T08:01:09;7.55;;;1.83;;
53263;SDS011;39153;52.680;6.172;2023-03-11T08:04:01;8.40;;;2.30;;
53263;SDS011;39153;52.680;6.172;2023-03-11T08:06:29;13.52;;;3.20;;
53263;SDS011;39153;52.680;6.172;2023-03-11T08:08:57;14.38;;;4.82;;
53263;SDS011;39153;52.680;6.172;2023-03-11T08:11:23;18.00;;;4.20;;
53263;SDS011;39153;52.680;6.172;2023-03-11T08:13:49;12.88;;;4.30;;
53263;SDS011;39153;52.680;6.172;2023-03-11T08:16:16;9.00;;;3.03;;
53263;SDS011;39153;52.680;6.172;2023-03-11T08:18:43;10.15;;;2.85;;
53263;SDS011;39153;52.680;6.172;2023-03-11T08:21:11;14.32;;;4.05;;
53263;SDS011;39153;52.680;6.172;2023-03-11T08:23:43;20.45;;;5.43;;
53263;SDS011;39153;52.680;6.172;2023-03-11T08:26:20;12.25;;;4.70;;
53263;SDS011;39153;52.680;6.172;2023-03-11T08:28:46;12.85;;;3.40;;
53263;SDS011;39153;52.680;6.172;2023-03-11T08:31:14;6.75;;;2.00;;
53263;SDS011;39153;52.680;6.172;2023-03-11T08:33:41;7.00;;;1.75;;
53263;SDS011;39153;52.680;6.172;2023-03-11T08:36:08;8.35;;;1.38;;
53263;SDS011;39153;52.680;6.172;2023-03-11T08:38:34;8.07;;;1.88;;
53263;SDS011;39153;52.680;6.172;2023-03-11T08:41:00;5.65;;;1.15;;
53263;SDS011;39153;52.680;6.172;2023-03-11T08:43:26;3.10;;;1.05;;
53263;SDS011;39153;52.680;6.172;2023-03-11T08:45:52;3.15;;;0.75;;
53263;SDS011;39153;52.680;6.172;2023-03-11T08:48:17;3.65;;;0.77;;
53263;SDS011;39153;52.680;6.172;2023-03-11T08:50:43;5.40;;;1.05;;
53263;SDS011;39153;52.680;6.172;2023-03-11T08:53:09;4.75;;;1.02;;
53263;SDS011;39153;52.680;6.172;2023-03-11T08:55:35;6.80;;;1.10;;
53263;SDS011;39153;52.680;6.172;2023-03-11T08:58:00;6.38;;;0.90;;
53263;SDS011;39153;52.680;6.172;2023-03-11T09:00:26;4.75;;;0.90;;
53263;SDS011;39153;52.680;6.172;2023-03-11T09:02:52;4.05;;;0.90;;
53263;SDS011;39153;52.680;6.172;2023-03-11T09:05:18;4.90;;;0.80;;
53263;SDS011;39153;52.680;6.172;2023-03-11T09:07:44;4.85;;;1.10;;
53263;SDS011;39153;52.680;6.172;2023-03-11T09:10:10;6.75;;;0.90;;
53263;SDS011;39153;52.680;6.172;2023-03-11T09:12:38;4.78;;;1.25;;
53263;SDS011;39153;52.680;6.172;2023-03-11T09:15:04;3.83;;;1.08;;
53263;SDS011;39153;52.680;6.172;2023-03-11T09:17:30;3.53;;;0.80;;
53263;SDS011;39153;52.680;6.172;2023-03-11T09:19:56;5.03;;;1.02;;
53263;SDS011;39153;52.680;6.172;2023-03-11T09:22:22;8.02;;;1.33;;
53263;SDS011;39153;52.680;6.172;2023-03-11T09:24:48;7.28;;;1.30;;
53263;SDS011;39153;52.680;6.172;2023-03-11T09:27:13;7.15;;;1.02;;
53263;SDS011;39153;52.680;6.172;2023-03-11T09:29:39;7.88;;;1.40;;
53263;SDS011;39153;52.680;6.172;2023-03-11T09:32:06;8.30;;;1.10;;
53263;SDS011;39153;52.680;6.172;2023-03-11T09:34:32;5.72;;;1.02;;
53263;SDS011;39153;52.680;6.172;2023-03-11T09:36:57;4.95;;;1.40;;
53263;SDS011;39153;52.680;6.172;2023-03-11T09:39:25;30.90;;;1.83;;
53263;SDS011;39153;52.680;6.172;2023-03-11T09:42:27;5.10;;;1.40;;
53263;SDS011;39153;52.680;6.172;2023-03-11T09:47:27;5.25;;;0.98;;
53263;SDS011;39153;52.680;6.172;2023-03-11T09:56:04;5.55;;;1.30;;
53263;SDS011;39153;52.680;6.172;2023-03-11T09:58:49;4.82;;;1.00;;
53263;SDS011;39153;52.680;6.172;2023-03-11T10:01:37;3.17;;;0.95;;
53263;SDS011;39153;52.680;6.172;2023-03-11T10:04:13;4.35;;;0.80;;
53263;SDS011;39153;52.680;6.172;2023-03-11T10:06:50;9.40;;;1.55;;
53263;SDS011;39153;52.680;6.172;2023-03-11T10:09:34;4.50;;;1.00;;
53263;SDS011;39153;52.680;6.172;2023-03-11T10:14:47;4.40;;;0.70;;
53263;SDS011;39153;52.680;6.172;2023-03-11T10:25:03;4.15;;;1.05;;
53263;SDS011;39153;52.680;6.172;2023-03-11T10:27:39;6.65;;;0.88;;
53263;SDS011;39153;52.680;6.172;2023-03-11T10:30:26;4.70;;;0.90;;
53263;SDS011;39153;52.680;6.172;2023-03-11T10:32:57;4.72;;;0.88;;
53263;SDS011;39153;52.680;6.172;2023-03-11T10:35:30;8.48;;;1.40;;
53263;SDS011;39153;52.680;6.172;2023-03-11T10:40:42;6.60;;;1.25;;
53263;SDS011;39153;52.680;6.172;2023-03-11T10:43:20;4.68;;;1.23;;
53263;SDS011;39153;52.680;6.172;2023-03-11T10:45:53;5.60;;;0.98;;
53263;SDS011;39153;52.680;6.172;2023-03-11T10:48:19;5.03;;;1.23;;
53263;SDS011;39153;52.680;6.172;2023-03-11T10:50:50;9.35;;;1.55;;
53263;SDS011;39153;52.680;6.172;2023-03-11T10:53:28;4.82;;;1.10;;
53263;SDS011;39153;52.680;6.172;2023-03-11T10:55:55;5.15;;;1.10;;
53263;SDS011;39153;52.680;6.172;2023-03-11T10:58:23;8.48;;;1.20;;
53263;SDS011;39153;52.680;6.172;2023-03-11T11:03:40;4.10;;;0.82;;
53263;SDS011;39153;52.680;6.172;2023-03-11T11:06:17;3.92;;;1.27;;
53263;SDS011;39153;52.680;6.172;2023-03-11T11:08:44;5.57;;;1.02;;
53263;SDS011;39153;52.680;6.172;2023-03-11T11:11:20;3.58;;;0.70;;
53263;SDS011;39153;52.680;6.172;2023-03-11T11:13:55;7.60;;;1.00;;
53263;SDS011;39153;52.680;6.172;2023-03-11T11:16:21;2.88;;;0.90;;
53263;SDS011;39153;52.680;6.172;2023-03-11T11:18:53;3.47;;;0.75;;
53263;SDS011;39153;52.680;6.172;2023-03-11T11:21:33;5.13;;;1.10;;
53263;SDS011;39153;52.680;6.172;2023-03-11T11:29:39;4.80;;;1.30;;
53263;SDS011;39153;52.680;6.172;2023-03-11T11:32:11;5.97;;;1.50;;
53263;SDS011;39153;52.680;6.172;2023-03-11T11:37:19;7.57;;;2.00;;
53263;SDS011;39153;52.680;6.172;2023-03-11T11:39:46;8.45;;;2.38;;
53263;SDS011;39153;52.680;6.172;2023-03-11T11:42:16;4.47;;;1.40;;
53263;SDS011;39153;52.680;6.172;2023-03-11T11:44:44;6.10;;;1.67;;
53263;SDS011;39153;52.680;6.172;2023-03-11T11:49:48;7.68;;;2.30;;
53263;SDS011;39153;52.680;6.172;2023-03-11T11:52:23;5.68;;;1.90;;
53263;SDS011;39153;52.680;6.172;2023-03-11T11:55:02;5.07;;;1.33;;
53263;SDS011;39153;52.680;6.172;2023-03-11T11:57:37;6.78;;;1.25;;
53263;SDS011;39153;52.680;6.172;2023-03-11T12:00:02;5.63;;;0.90;;
53263;SDS011;39153;52.680;6.172;2023-03-11T12:02:40;5.95;;;1.05;;
53263;SDS011;39153;52.680;6.172;2023-03-11T12:10:53;4.82;;;0.93;;
53263;SDS011;39153;52.680;6.172;2023-03-11T12:24:14;5.90;;;0.88;;
53263;SDS011;39153;52.680;6.172;2023-03-11T12:26:53;4.63;;;0.68;;
53263;SDS011;39153;52.680;6.172;2023-03-11T12:29:37;2.38;;;0.60;;
53263;SDS011;39153;52.680;6.172;2023-03-11T12:32:06;3.38;;;0.80;;
53263;SDS011;39153;52.680;6.172;2023-03-11T12:34:34;4.47;;;0.70;;
53263;SDS011;39153;52.680;6.172;2023-03-11T12:37:00;5.45;;;0.80;;
53263;SDS011;39153;52.680;6.172;2023-03-11T12:39:36;4.25;;;0.85;;
53263;SDS011;39153;52.680;6.172;2023-03-11T12:49:39;4.47;;;0.55;;
53263;SDS011;39153;52.680;6.172;2023-03-11T12:54:38;7.43;;;0.70;;
53263;SDS011;39153;52.680;6.172;2023-03-11T13:07:45;6.85;;;0.80;;
53263;SDS011;39153;52.680;6.172;2023-03-11T13:12:55;3.90;;;1.00;;
53263;SDS011;39153;52.680;6.172;2023-03-11T13:26:00;2.35;;;0.85;;
53263;SDS011;39153;52.680;6.172;2023-03-11T13:31:40;3.65;;;0.60;;
53263;SDS011;39153;52.680;6.172;2023-03-11T13:34:41;2.90;;;0.52;;
53263;SDS011;39153;52.680;6.172;2023-03-11T13:40:21;2.65;;;0.70;;
53263;SDS011;39153;52.680;6.172;2023-03-11T13:42:59;3.72;;;0.65;;
53263;SDS011;39153;52.680;6.172;2023-03-11T13:45:29;3.70;;;0.70;;
53263;SDS011;39153;52.680;6.172;2023-03-11T13:48:13;7.00;;;0.95;;
53263;SDS011;39153;52.680;6.172;2023-03-11T13:50:52;3.55;;;0.80;;
53263;SDS011;39153;52.680;6.172;2023-03-11T13:53:26;7.25;;;0.80;;
53263;SDS011;39153;52.680;6.172;2023-03-11T13:55:56;4.53;;;1.17;;
53263;SDS011;39153;52.680;6.172;2023-03-11T13:58:22;2.35;;;0.68;;
53263;SDS011;39153;52.680;6.172;2023-03-11T14:00:54;2.70;;;0.60;;
53263;SDS011;39153;52.680;6.172;2023-03-11T14:03:21;2.67;;;0.70;;
53263;SDS011;39153;52.680;6.172;2023-03-11T14:06:12;2.75;;;0.50;;
53263;SDS011;39153;52.680;6.172;2023-03-11T14:08:38;3.05;;;0.52;;
53263;SDS011;39153;52.680;6.172;2023-03-11T14:16:09;3.45;;;0.70;;
53263;SDS011;39153;52.680;6.172;2023-03-11T14:18:41;4.03;;;0.60;;
53263;SDS011;39153;52.680;6.172;2023-03-11T14:21:20;5.47;;;0.75;;
53263;SDS011;39153;52.680;6.172;2023-03-11T14:23:47;3.55;;;0.88;;
53263;SDS011;39153;52.680;6.172;2023-03-11T14:26:21;4.55;;;0.85;;
53263;SDS011;39153;52.680;6.172;2023-03-11T14:28:48;4.47;;;0.80;;
53263;SDS011;39153;52.680;6.172;2023-03-11T14:31:29;2.97;;;0.60;;
53263;SDS011;39153;52.680;6.172;2023-03-11T14:33:59;4.85;;;0.93;;
53263;SDS011;39153;52.680;6.172;2023-03-11T14:39:27;4.97;;;0.73;;
53263;SDS011;39153;52.680;6.172;2023-03-11T14:44:43;5.60;;;0.80;;
53263;SDS011;39153;52.680;6.172;2023-03-11T14:47:38;4.90;;;1.00;;
53263;SDS011;39153;52.680;6.172;2023-03-11T14:50:25;6.63;;;0.90;;
53263;SDS011;39153;52.680;6.172;2023-03-11T14:55:35;2.42;;;0.70;;
53263;SDS011;39153;52.680;6.172;2023-03-11T15:03:30;3.95;;;0.73;;
53263;SDS011;39153;52.680;6.172;2023-03-11T15:06:03;3.70;;;0.73;;
53263;SDS011;39153;52.680;6.172;2023-03-11T15:08:35;2.50;;;0.50;;
53263;SDS011;39153;52.680;6.172;2023-03-11T15:13:35;3.63;;;0.70;;
53263;SDS011;39153;52.680;6.172;2023-03-11T15:16:03;3.13;;;0.70;;
53263;SDS011;39153;52.680;6.172;2023-03-11T15:18:34;4.38;;;1.10;;
53263;SDS011;39153;52.680;6.172;2023-03-11T15:21:13;4.10;;;0.90;;
53263;SDS011;39153;52.680;6.172;2023-03-11T15:23:45;3.88;;;0.95;;
53263;SDS011;39153;52.680;6.172;2023-03-11T15:26:34;4.22;;;0.90;;
53263;SDS011;39153;52.680;6.172;2023-03-11T15:29:14;3.03;;;0.90;;
53263;SDS011;39153;52.680;6.172;2023-03-11T15:31:41;4.97;;;0.90;;
53263;SDS011;39153;52.680;6.172;2023-03-11T15:37:04;3.28;;;0.70;;
53263;SDS011;39153;52.680;6.172;2023-03-11T15:39:49;3.08;;;0.70;;
53263;SDS011;39153;52.680;6.172;2023-03-11T15:42:18;3.75;;;0.70;;
53263;SDS011;39153;52.680;6.172;2023-03-11T15:44:55;4.72;;;0.90;;
53263;SDS011;39153;52.680;6.172;2023-03-11T15:47:32;2.45;;;0.60;;
53263;SDS011;39153;52.680;6.172;2023-03-11T15:52:48;4.43;;;1.00;;
53263;SDS011;39153;52.680;6.172;2023-03-11T15:55:15;4.35;;;0.75;;
53263;SDS011;39153;52.680;6.172;2023-03-11T15:57:41;3.72;;;0.57;;
53263;SDS011;39153;52.680;6.172;2023-03-11T16:00:13;3.53;;;0.70;;
53263;SDS011;39153;52.680;6.172;2023-03-11T16:02:46;4.35;;;0.88;;
53263;SDS011;39153;52.680;6.172;2023-03-11T16:05:13;5.68;;;0.90;;
53263;SDS011;39153;52.680;6.172;2023-03-11T16:07:40;4.00;;;0.80;;
53263;SDS011;39153;52.680;6.172;2023-03-11T16:10:07;4.53;;;0.80;;
53263;SDS011;39153;52.680;6.172;2023-03-11T16:12:33;4.85;;;1.17;;
53263;SDS011;39153;52.680;6.172;2023-03-11T16:14:59;4.82;;;1.30;;
53263;SDS011;39153;52.680;6.172;2023-03-11T16:17:25;8.02;;;2.20;;
53263;SDS011;39153;52.680;6.172;2023-03-11T16:19:51;8.52;;;2.25;;
53263;SDS011;39153;52.680;6.172;2023-03-11T16:22:21;8.77;;;2.75;;
53263;SDS011;39153;52.680;6.172;2023-03-11T16:24:52;10.07;;;2.67;;
53263;SDS011;39153;52.680;6.172;2023-03-11T16:27:18;6.13;;;1.75;;
53263;SDS011;39153;52.680;6.172;2023-03-11T16:29:44;7.07;;;1.33;;
53263;SDS011;39153;52.680;6.172;2023-03-11T16:32:10;5.32;;;1.30;;
53263;SDS011;39153;52.680;6.172;2023-03-11T16:34:37;6.63;;;1.10;;
53263;SDS011;39153;52.680;6.172;2023-03-11T16:37:04;5.05;;;1.80;;
53263;SDS011;39153;52.680;6.172;2023-03-11T16:39:30;4.88;;;1.60;;
53263;SDS011;39153;52.680;6.172;2023-03-11T16:41:56;4.22;;;1.30;;
53263;SDS011;39153;52.680;6.172;2023-03-11T16:44:22;6.85;;;2.00;;
53263;SDS011;39153;52.680;6.172;2023-03-11T16:46:48;5.60;;;1.70;;
53263;SDS011;39153;52.680;6.172;2023-03-11T16:49:13;4.50;;;1.20;;
53263;SDS011;39153;52.680;6.172;2023-03-11T16:51:39;4.53;;;1.30;;
53263;SDS011;39153;52.680;6.172;2023-03-11T16:54:05;4.35;;;1.40;;
53263;SDS011;39153;52.680;6.172;2023-03-11T16:56:31;6.50;;;1.10;;
53263;SDS011;39153;52.680;6.172;2023-03-11T16:58:56;3.88;;;0.82;;
53263;SDS011;39153;52.680;6.172;2023-03-11T17:01:23;3.13;;;0.70;;
53263;SDS011;39153;52.680;6.172;2023-03-11T17:03:49;4.18;;;0.80;;
53263;SDS011;39153;52.680;6.172;2023-03-11T17:06:16;2.55;;;0.90;;
53263;SDS011;39153;52.680;6.172;2023-03-11T17:08:42;0.95;;;0.50;;